Smoky Hollow, Minnesota
Current Conditions -  °F | °C
As of 12:16 PM on Friday 19 Dec 2014 (Local Time) from KXVG Reporting Station
Haze Haze  
Wind Chill: 10°   Ceiling: 700
Heat Index: 21°   Visibility: 1.2mi
Dew Point: 21°   Wind: 10mph
Humidity: 100%   Direction: 150°SSE
Pressure: 30.13"   Gusts: NA
Location:  47.0973°N, 93.9173°W
Report Text: KXVG 191816Z AUTO 15009KT 1 1/4SM BR OVC007 M06/M06 A3013 RMK AO2
Loading
Personal Weather Stations






























Interactive Weather Map New forecast layout! Learn more

10-Day Weather Forecast

Advertisements
Track Severe Weather on mobile